Time;durP1;ratioP1;P1;durP2;ratioP2;P2;SDS_P1;SDS_P2;PMS_P1;PMS_P2;Temp;Humidity;BMP_temperature;BMP_pressure;BME280_temperature;BME280_humidity;BME280_pressure;Samples;Min_cycle;Max_cycle;Signal;HPM_P1;HPM_P2
2023/09/16 00:00:16;;;;;;;10.57;5.65;;;;;;;13.98;100.00;95866.97;1037938;28;20271;-76
2023/09/16 00:00:47;;;;;;;9.90;6.07;;;;;;;13.98;100.00;95863.53;1038578;28;20924;-76
2023/09/16 00:01:17;;;;;;;7.82;5.68;;;;;;;13.96;100.00;95865.69;1039916;28;20112;-75
2023/09/16 00:01:48;;;;;;;8.00;5.78;;;;;;;13.94;100.00;95863.31;1042621;28;20029;-75
2023/09/16 00:02:20;;;;;;;7.85;5.43;;;;;;;13.95;100.00;95869.38;1042652;28;20055;-75
2023/09/16 00:02:51;;;;;;;7.75;6.10;;;;;;;13.96;100.00;95870.97;1042360;28;20021;-74
2023/09/16 00:03:21;;;;;;;7.35;5.60;;;;;;;13.96;100.00;95866.47;1038392;28;20029;-75
2023/09/16 00:03:52;;;;;;;8.70;5.43;;;;;;;13.90;100.00;95857.81;1042980;28;20059;-76
2023/09/16 00:04:25;;;;;;;6.82;5.32;;;;;;;13.93;100.00;95860.97;1042530;28;20021;-75
2023/09/16 00:04:55;;;;;;;7.93;6.05;;;;;;;13.89;100.00;95866.81;1035207;28;20101;-77
2023/09/16 00:05:26;;;;;;;9.50;5.70;;;;;;;13.95;100.00;95870.19;1034326;28;20041;-76
2023/09/16 00:05:57;;;;;;;7.70;5.82;;;;;;;13.94;100.00;95878.34;1034587;28;20700;-76
2023/09/16 00:06:27;;;;;;;10.05;6.00;;;;;;;13.94;100.00;95867.81;1034131;28;20034;-76
2023/09/16 00:06:59;;;;;;;7.10;5.80;;;;;;;13.95;100.00;95872.00;1034583;28;20421;-76
2023/09/16 00:07:29;;;;;;;8.23;5.78;;;;;;;13.97;100.00;95872.53;1038559;28;20044;-76
2023/09/16 00:08:00;;;;;;;9.25;6.18;;;;;;;13.81;100.00;95848.16;1039225;28;20120;-75
2023/09/16 00:08:33;;;;;;;9.18;5.90;;;;;;;13.89;100.00;95861.53;1042328;28;20017;-77
2023/09/16 00:09:04;;;;;;;6.72;5.32;;;;;;;13.95;100.00;95886.00;1034398;28;20029;-76
2023/09/16 00:09:34;;;;;;;7.57;5.82;;;;;;;13.89;100.00;95877.34;1034858;28;20021;-76
2023/09/16 00:10:05;;;;;;;8.30;5.82;;;;;;;13.97;100.00;95877.81;1042476;28;20327;-75
2023/09/16 00:10:36;;;;;;;6.82;5.47;;;;;;;13.98;100.00;95887.28;1042649;28;20021;-76
2023/09/16 00:11:09;;;;;;;8.52;5.78;;;;;;;13.97;100.00;95888.34;1045872;28;20016;-76
2023/09/16 00:11:39;;;;;;;10.25;5.85;;;;;;;13.97;100.00;95883.06;1042830;28;20021;-76
2023/09/16 00:12:10;;;;;;;11.23;6.03;;;;;;;13.95;100.00;95882.56;1046964;28;20020;-76
2023/09/16 00:12:40;;;;;;;8.00;5.63;;;;;;;13.91;100.00;95883.13;1046702;28;20025;-75
2023/09/16 00:13:11;;;;;;;8.80;5.80;;;;;;;13.93;100.00;95884.72;1043633;28;20029;-75
2023/09/16 00:13:43;;;;;;;9.60;6.05;;;;;;;13.87;100.00;95878.69;1038287;28;20028;-76
2023/09/16 00:14:13;;;;;;;7.45;5.93;;;;;;;13.94;100.00;95886.28;1026258;28;20031;-76
2023/09/16 00:14:44;;;;;;;7.60;5.65;;;;;;;13.91;100.00;95877.06;1038407;28;20026;-75
2023/09/16 00:15:15;;;;;;;8.85;6.13;;;;;;;13.93;100.00;95887.34;1042904;28;20047;-74
2023/09/16 00:15:48;;;;;;;9.80;6.18;;;;;;;13.88;100.00;95883.69;1042677;28;20037;-77
2023/09/16 00:16:18;;;;;;;8.55;5.88;;;;;;;13.93;100.00;95889.97;1042691;28;20032;-76
2023/09/16 00:16:50;;;;;;;9.77;5.85;;;;;;;13.91;100.00;95884.97;1042445;28;20037;-74
2023/09/16 00:17:21;;;;;;;9.73;6.32;;;;;;;13.90;100.00;95888.69;1043079;28;20036;-74
2023/09/16 00:17:52;;;;;;;7.60;5.65;;;;;;;13.87;100.00;95884.75;1043441;28;20058;-75
2023/09/16 00:18:22;;;;;;;10.77;6.63;;;;;;;13.87;100.00;95882.13;1046417;28;20076;-75
2023/09/16 00:18:53;;;;;;;8.63;6.47;;;;;;;13.81;100.00;95879.81;1042907;28;20031;-74
2023/09/16 00:19:23;;;;;;;8.25;5.90;;;;;;;13.86;100.00;95885.81;1042606;28;20025;-75
2023/09/16 00:19:54;;;;;;;8.10;6.00;;;;;;;13.81;100.00;95885.06;1037755;28;20412;-78
2023/09/16 00:20:27;;;;;;;8.30;6.07;;;;;;;13.83;100.00;95883.75;1034390;28;20032;-75
2023/09/16 00:20:57;;;;;;;11.15;6.20;;;;;;;13.84;100.00;95885.31;1034416;28;20088;-78
2023/09/16 00:21:28;;;;;;;8.25;5.70;;;;;;;13.82;100.00;95882.19;1026446;28;20128;-76
2023/09/16 00:21:58;;;;;;;11.93;7.05;;;;;;;13.83;100.00;95888.22;1034848;28;20026;-75
2023/09/16 00:22:30;;;;;;;8.63;6.55;;;;;;;13.77;100.00;95876.94;1038444;28;20798;-75
2023/09/16 00:23:00;;;;;;;9.32;5.93;;;;;;;13.84;100.00;95889.78;1030616;28;20157;-76
2023/09/16 00:23:31;;;;;;;8.45;6.53;;;;;;;13.82;100.00;95884.03;1034138;28;20176;-76
2023/09/16 00:24:01;;;;;;;11.18;6.88;;;;;;;13.84;100.00;95887.16;1026620;28;20033;-76
2023/09/16 00:24:32;;;;;;;11.02;6.00;;;;;;;13.76;100.00;95872.75;1034678;28;20057;-75
2023/09/16 00:25:04;;;;;;;11.13;7.05;;;;;;;13.82;100.00;95884.81;1038489;28;20424;-76
2023/09/16 00:25:35;;;;;;;8.98;5.93;;;;;;;13.80;100.00;95876.38;1038723;28;20079;-75
2023/09/16 00:26:05;;;;;;;11.30;6.97;;;;;;;13.82;100.00;95876.91;1030364;28;20018;-75
2023/09/16 00:26:36;;;;;;;9.45;6.22;;;;;;;13.83;100.00;95877.69;1034860;28;20093;-75
2023/09/16 00:27:09;;;;;;;9.40;6.45;;;;;;;13.77;100.00;95871.66;1038584;28;20059;-75
2023/09/16 00:27:40;;;;;;;9.20;5.90;;;;;;;13.77;100.00;95873.53;1030667;28;20540;-75
2023/09/16 00:28:10;;;;;;;9.82;6.53;;;;;;;13.81;100.00;95874.53;1034517;28;20054;-74
2023/09/16 00:28:41;;;;;;;11.32;7.00;;;;;;;13.83;100.00;95888.22;1034211;28;20022;-74
2023/09/16 00:29:11;;;;;;;10.68;6.65;;;;;;;13.79;100.00;95881.94;1034459;28;20022;-75
2023/09/16 00:29:42;;;;;;;10.18;6.97;;;;;;;13.83;100.00;95883.75;1034107;28;20026;-76
2023/09/16 00:30:13;;;;;;;10.45;6.90;;;;;;;13.83;100.00;95888.22;1033682;28;20073;-75
2023/09/16 00:30:48;;;;;;;9.60;6.65;;;;;;;13.80;100.00;95881.66;1034356;28;20026;-76
2023/09/16 00:31:18;;;;;;;10.30;7.10;;;;;;;13.81;100.00;95880.59;1035222;28;20053;-76
2023/09/16 00:31:49;;;;;;;8.45;6.43;;;;;;;13.70;100.00;95865.94;1037429;28;20092;-76
2023/09/16 00:32:19;;;;;;;9.80;6.63;;;;;;;13.83;100.00;95885.59;1035169;28;20037;-76
2023/09/16 00:32:50;;;;;;;9.85;6.75;;;;;;;13.83;100.00;95886.38;1030888;28;20498;-76
2023/09/16 00:33:20;;;;;;;10.07;6.72;;;;;;;13.83;100.00;95891.66;1030523;28;20038;-75
2023/09/16 00:33:51;;;;;;;9.98;6.90;;;;;;;13.83;100.00;95891.66;1037752;28;20417;-75
2023/09/16 00:34:22;;;;;;;9.95;7.20;;;;;;;13.81;100.00;95890.34;1038805;28;20492;-76
2023/09/16 00:34:53;;;;;;;8.55;5.90;;;;;;;13.80;100.00;95884.28;1046784;28;20025;-75
2023/09/16 00:35:23;;;;;;;10.45;6.72;;;;;;;13.79;100.00;95893.28;1042337;28;20029;-75
2023/09/16 00:35:54;;;;;;;8.15;6.50;;;;;;;13.74;100.00;95876.72;1042673;28;20063;-77
2023/09/16 00:36:24;;;;;;;12.00;6.32;;;;;;;13.77;100.00;95879.56;1042442;28;20428;-75
2023/09/16 00:36:55;;;;;;;8.10;6.25;;;;;;;13.79;100.00;95884.59;1041631;28;20075;-75
2023/09/16 00:37:25;;;;;;;11.82;6.88;;;;;;;13.71;100.00;95875.41;1038407;28;20017;-74
2023/09/16 00:37:56;;;;;;;9.95;6.97;;;;;;;13.75;100.00;95880.91;1039233;28;20029;-75
2023/09/16 00:38:26;;;;;;;12.73;6.70;;;;;;;13.78;100.00;95886.44;1035125;28;20034;-76
2023/09/16 00:38:57;;;;;;;9.77;7.20;;;;;;;13.78;100.00;95878.53;1038657;28;20558;-75
2023/09/16 00:39:27;;;;;;;9.38;7.20;;;;;;;13.79;100.00;95882.72;1030961;28;20042;-76
2023/09/16 00:39:57;;;;;;;13.45;6.78;;;;;;;13.71;100.00;95875.41;1038637;28;20493;-75
2023/09/16 00:40:28;;;;;;;8.88;6.55;;;;;;;13.76;100.00;95883.28;1037094;28;20298;-76
2023/09/16 00:40:58;;;;;;;12.68;7.72;;;;;;;13.71;100.00;95867.50;1039241;28;20033;-75
2023/09/16 00:41:29;;;;;;;10.48;7.32;;;;;;;13.74;100.00;95874.06;1039097;28;20028;-76
2023/09/16 00:41:59;;;;;;;12.05;7.65;;;;;;;13.73;100.00;95883.06;1039680;28;20059;-75
2023/09/16 00:42:30;;;;;;;9.18;6.72;;;;;;;13.75;100.00;95881.72;1039264;28;20028;-77
2023/09/16 00:43:00;;;;;;;10.55;7.32;;;;;;;13.75;100.00;95892.28;1035196;28;20025;-75
2023/09/16 00:43:31;;;;;;;9.05;6.25;;;;;;;13.73;100.00;95888.34;1039293;28;20515;-76
2023/09/16 00:44:01;;;;;;;10.05;6.97;;;;;;;13.73;100.00;95894.41;1039114;28;20027;-75
2023/09/16 00:44:32;;;;;;;9.63;7.05;;;;;;;13.71;100.00;95893.88;1039225;28;20028;-75
2023/09/16 00:45:02;;;;;;;9.02;6.57;;;;;;;13.64;100.00;95880.22;1039261;28;20026;-76
2023/09/16 00:45:33;;;;;;;10.15;6.13;;;;;;;13.63;100.00;95883.94;1037411;28;20044;-75
2023/09/16 00:46:03;;;;;;;10.38;7.05;;;;;;;13.71;100.00;95895.72;1039221;28;20489;-75
2023/09/16 00:46:34;;;;;;;9.05;6.90;;;;;;;13.65;100.00;95887.09;1035017;28;20072;-77
2023/09/16 00:47:05;;;;;;;9.65;7.13;;;;;;;13.66;100.00;95899.22;1043639;28;20036;-75
2023/09/16 00:47:35;;;;;;;15.27;7.57;;;;;;;13.59;100.00;95888.19;1043376;28;20508;-76
2023/09/16 00:48:05;;;;;;;13.32;7.90;;;;;;;13.62;100.00;95898.97;1030947;28;20154;-75
2023/09/16 00:48:36;;;;;;;12.43;6.53;;;;;;;13.62;100.00;95898.19;1031068;28;20089;-76
2023/09/16 00:49:06;;;;;;;12.23;7.25;;;;;;;13.60;100.00;95900.31;1030951;28;20182;-75
2023/09/16 00:49:38;;;;;;;10.52;6.85;;;;;;;13.61;100.00;95901.88;1031232;28;20034;-75
2023/09/16 00:50:12;;;;;;;10.88;7.10;;;;;;;13.57;100.00;95898.22;1046878;28;20024;-75
2023/09/16 00:50:43;;;;;;;15.90;7.65;;;;;;;13.54;100.00;95896.13;1043095;28;20024;-74
2023/09/16 00:51:14;;;;;;;10.35;6.78;;;;;;;13.55;100.00;95903.00;1043493;28;20025;-75
2023/09/16 00:51:45;;;;;;;10.93;7.15;;;;;;;13.56;100.00;95899.31;1043396;28;20055;-74
2023/09/16 00:52:15;;;;;;;9.48;6.63;;;;;;;13.56;100.00;95909.84;1040607;28;20377;-75
2023/09/16 00:52:55;;;;;;;11.95;6.47;;;;;;;13.48;100.00;95889.34;1047131;28;20037;-75
2023/09/16 00:53:26;;;;;;;10.25;6.85;;;;;;;13.47;100.00;95893.03;1039080;28;20036;-76
2023/09/16 00:53:57;;;;;;;11.32;7.03;;;;;;;13.47;100.00;95895.69;1030997;28;20045;-75
2023/09/16 00:54:27;;;;;;;9.00;6.82;;;;;;;13.50;100.00;95900.41;1034938;28;20034;-75
2023/09/16 00:54:58;;;;;;;8.68;6.25;;;;;;;13.48;100.00;95899.88;1043367;28;20126;-76
2023/09/16 00:55:28;;;;;;;10.73;6.47;;;;;;;13.46;100.00;95897.53;1039056;28;20021;-75
2023/09/16 00:55:59;;;;;;;9.80;7.03;;;;;;;13.46;100.00;95902.81;1039125;28;20029;-75
2023/09/16 00:56:29;;;;;;;11.18;7.40;;;;;;;13.41;100.00;95897.56;1031019;28;20569;-75
2023/09/16 00:57:00;;;;;;;11.68;6.57;;;;;;;13.39;100.00;95891.78;1034992;28;20038;-78
2023/09/16 00:57:32;;;;;;;13.43;6.90;;;;;;;13.39;100.00;95889.94;1041434;28;20691;-76
2023/09/16 00:58:02;;;;;;;9.70;6.60;;;;;;;13.43;100.00;95901.50;1041714;28;20139;-76
2023/09/16 00:58:34;;;;;;;12.02;7.07;;;;;;;13.40;100.00;95891.50;1039087;28;20052;-75
2023/09/16 00:59:04;;;;;;;9.68;7.05;;;;;;;13.39;100.00;95895.22;1034797;28;20087;-76
2023/09/16 00:59:35;;;;;;;10.10;7.35;;;;;;;13.34;100.00;95886.56;1038848;28;20053;-75
2023/09/16 01:00:07;;;;;;;11.18;7.28;;;;;;;13.40;100.00;95896.78;1042634;28;20025;-75
2023/09/16 01:00:38;;;;;;;12.23;7.20;;;;;;;13.35;100.00;95894.19;1039239;28;20030;-74
2023/09/16 01:01:09;;;;;;;10.07;7.32;;;;;;;13.32;100.00;95889.47;1034807;28;20026;-76
2023/09/16 01:01:40;;;;;;;10.70;7.32;;;;;;;13.34;100.00;95892.59;1034964;28;20017;-77
2023/09/16 01:02:11;;;;;;;11.88;7.80;;;;;;;13.33;100.00;95891.03;1043153;28;20021;-76
2023/09/16 01:02:42;;;;;;;10.70;6.70;;;;;;;13.38;100.00;95904.19;1039137;28;20463;-74
2023/09/16 01:03:14;;;;;;;13.10;7.95;;;;;;;13.37;100.00;95902.59;1034937;28;20018;-76
2023/09/16 01:03:44;;;;;;;12.88;7.18;;;;;;;13.31;100.00;95887.91;1035048;28;20029;-76
2023/09/16 01:04:16;;;;;;;11.60;7.47;;;;;;;13.33;100.00;95901.59;1027052;28;20050;-76
2023/09/16 01:04:47;;;;;;;10.35;6.95;;;;;;;13.32;100.00;95900.00;1036969;28;20530;-75
2023/09/16 01:05:17;;;;;;;11.82;6.78;;;;;;;13.32;100.00;95907.13;1043259;28;20049;-75
2023/09/16 01:05:48;;;;;;;11.27;6.93;;;;;;;13.33;100.00;95911.34;1042952;28;20111;-75
2023/09/16 01:06:19;;;;;;;13.38;7.30;;;;;;;13.27;100.00;95900.03;1035051;28;20045;-75
2023/09/16 01:06:51;;;;;;;12.15;6.63;;;;;;;13.26;100.00;95903.75;1035025;28;20144;-75
2023/09/16 01:07:21;;;;;;;11.50;7.45;;;;;;;13.25;100.00;95899.56;1038979;28;20084;-75
2023/09/16 01:07:54;;;;;;;13.50;7.03;;;;;;;13.23;100.00;95898.22;1043484;28;20594;-75
2023/09/16 01:08:25;;;;;;;9.82;7.38;;;;;;;13.23;100.00;95906.91;1039775;28;20022;-75
2023/09/16 01:08:55;;;;;;;12.50;6.65;;;;;;;13.22;100.00;95902.69;1039124;28;20022;-75
2023/09/16 01:09:26;;;;;;;10.20;7.68;;;;;;;13.22;100.00;95905.34;1030844;28;20060;-75
2023/09/16 01:09:56;;;;;;;11.07;7.10;;;;;;;13.17;100.00;95905.34;1042329;28;20463;-74
2023/09/16 01:10:27;;;;;;;10.30;7.05;;;;;;;13.24;100.00;95897.13;1034984;28;20022;-75
2023/09/16 01:10:57;;;;;;;10.38;7.20;;;;;;;13.21;100.00;95907.19;1022765;29;20050;-75
2023/09/16 01:11:28;;;;;;;9.70;6.97;;;;;;;13.22;100.00;95897.44;1030252;28;20445;-76
2023/09/16 01:11:58;;;;;;;9.68;6.80;;;;;;;13.24;100.00;95900.59;1035064;28;20034;-76
2023/09/16 01:12:29;;;;;;;11.32;7.65;;;;;;;13.24;100.00;95902.41;1035153;28;20076;-77
2023/09/16 01:12:59;;;;;;;9.30;6.82;;;;;;;13.22;100.00;95897.44;1043210;28;20298;-74
2023/09/16 01:13:29;;;;;;;12.32;7.88;;;;;;;13.25;100.00;95898.75;1030664;28;20022;-75
2023/09/16 01:14:00;;;;;;;9.60;7.43;;;;;;;13.19;100.00;95896.13;1026969;28;20030;-76
2023/09/16 01:14:30;;;;;;;9.25;7.13;;;;;;;13.16;100.00;95885.34;1030959;28;20031;-76
2023/09/16 01:15:01;;;;;;;10.75;7.65;;;;;;;13.25;100.00;95898.75;1047037;28;20032;-74
2023/09/16 01:15:33;;;;;;;11.27;7.65;;;;;;;13.22;100.00;95894.78;1039052;28;20032;-75
2023/09/16 01:16:15;;;;;;;10.48;7.57;;;;;;;13.22;100.00;95902.69;1034816;28;20022;-76
2023/09/16 01:16:57;;;;;;;10.15;7.20;;;;;;;13.17;100.00;95894.81;1039621;28;20232;-75
2023/09/16 01:17:32;;;;;;;11.65;7.45;;;;;;;13.15;100.00;95884.56;1042950;28;20032;-75
2023/09/16 01:18:23;;;;;;;10.00;7.22;;;;;;;13.20;100.00;95897.69;1038803;28;20108;-75
2023/09/16 01:18:59;;;;;;;11.55;7.38;;;;;;;13.14;100.00;95890.09;1035051;28;20072;-75
2023/09/16 01:19:44;;;;;;;10.07;7.05;;;;;;;13.15;100.00;95886.41;1030712;28;20026;-76
2023/09/16 01:20:16;;;;;;;11.27;7.55;;;;;;;13.14;100.00;95892.72;1033920;28;20995;-76
2023/09/16 01:20:48;;;;;;;10.85;7.10;;;;;;;13.18;100.00;95896.41;1026941;28;20079;-75
2023/09/16 01:21:19;;;;;;;11.38;7.10;;;;;;;13.17;100.00;95894.81;1035047;28;20049;-74
2023/09/16 01:21:50;;;;;;;10.25;6.32;;;;;;;13.16;100.00;95890.63;1038643;28;20037;-75
2023/09/16 01:22:20;;;;;;;10.90;7.28;;;;;;;13.14;100.00;95887.47;1035057;28;20366;-76
2023/09/16 01:22:50;;;;;;;10.02;7.50;;;;;;;13.15;100.00;95889.84;1031059;28;20030;-75
2023/09/16 01:23:21;;;;;;;10.95;7.60;;;;;;;13.15;100.00;95896.97;1030846;28;20022;-76
2023/09/16 01:24:15;;;;;;;10.65;8.10;;;;;;;13.15;100.00;95896.97;1034916;28;20029;-75
2023/09/16 01:24:52;;;;;;;10.65;7.15;;;;;;;13.12;100.00;95890.38;1038275;28;20025;-75
2023/09/16 01:25:26;;;;;;;11.07;7.22;;;;;;;13.09;100.00;95887.50;1050906;28;20019;-74
2023/09/16 01:25:57;;;;;;;11.27;7.93;;;;;;;13.12;100.00;95894.88;1043120;28;20036;-75
2023/09/16 01:26:27;;;;;;;10.00;7.75;;;;;;;13.08;100.00;95888.59;1038797;28;20017;-76
2023/09/16 01:26:58;;;;;;;10.00;7.32;;;;;;;13.07;100.00;95887.00;1044339;28;20017;-75
2023/09/16 01:27:28;;;;;;;11.93;7.93;;;;;;;13.04;100.00;95882.25;1034844;28;20461;-75
2023/09/16 01:27:58;;;;;;;12.68;7.55;;;;;;;13.06;100.00;95880.16;1035029;28;20550;-75
2023/09/16 01:28:29;;;;;;;12.82;8.00;;;;;;;13.09;100.00;95893.56;1032124;28;20026;-76
2023/09/16 01:28:59;;;;;;;9.07;7.10;;;;;;;13.09;100.00;95890.16;1043257;28;20443;-75
2023/09/16 01:29:30;;;;;;;11.48;7.88;;;;;;;13.08;100.00;95896.47;1043203;28;20031;-75
2023/09/16 01:30:00;;;;;;;11.60;7.28;;;;;;;13.03;100.00;95885.97;1042563;28;20044;-75
2023/09/16 01:30:32;;;;;;;16.77;7.32;;;;;;;13.03;100.00;95885.97;1030906;28;20470;-76
2023/09/16 01:31:03;;;;;;;11.57;6.97;;;;;;;12.96;100.00;95884.44;1043141;28;20013;-75
2023/09/16 01:31:34;;;;;;;16.50;7.45;;;;;;;12.96;100.00;95889.69;1039072;28;20021;-76
2023/09/16 01:32:05;;;;;;;14.55;7.10;;;;;;;12.97;100.00;95899.16;1029504;28;20019;-75
2023/09/16 01:32:43;;;;;;;21.52;10.10;;;;;;;12.96;100.00;95892.31;1035137;28;20026;-75
2023/09/16 01:33:22;;;;;;;16.77;7.80;;;;;;;12.85;100.00;95880.28;1035011;28;20009;-76
2023/09/16 01:33:53;;;;;;;11.77;7.65;;;;;;;12.94;100.00;95889.19;1038888;28;20041;-75
2023/09/16 01:34:29;;;;;;;10.45;7.03;;;;;;;12.81;100.00;95863.47;1038914;28;20053;-76
2023/09/16 01:35:01;;;;;;;13.40;8.25;;;;;;;12.94;100.00;95889.19;1039094;28;20137;-75
2023/09/16 01:35:32;;;;;;;10.43;7.75;;;;;;;12.95;100.00;95893.41;1034895;28;20085;-76
2023/09/16 01:36:09;;;;;;;12.73;8.38;;;;;;;12.94;100.00;95891.84;1038997;28;20370;-74
2023/09/16 01:36:40;;;;;;;11.60;7.50;;;;;;;12.88;100.00;95878.97;1035028;28;20097;-76
2023/09/16 01:37:16;;;;;;;11.90;7.95;;;;;;;12.93;100.00;95894.72;1034789;28;20018;-76
2023/09/16 01:37:46;;;;;;;12.63;8.00;;;;;;;12.93;100.00;95892.09;1038957;28;20524;-74
2023/09/16 01:38:19;;;;;;;12.02;7.63;;;;;;;12.88;100.00;95885.00;1030831;28;20084;-77
2023/09/16 01:38:54;;;;;;;11.90;8.00;;;;;;;12.92;100.00;95893.16;1037280;28;20026;-75
2023/09/16 01:39:24;;;;;;;10.73;7.65;;;;;;;12.90;100.00;95888.16;1038973;28;20021;-75
2023/09/16 01:39:58;;;;;;;11.02;7.80;;;;;;;12.91;100.00;95892.38;1026134;28;20022;-75
2023/09/16 01:40:28;;;;;;;12.32;7.55;;;;;;;12.90;100.00;95892.63;1034510;28;20037;-75
2023/09/16 01:40:59;;;;;;;10.07;7.28;;;;;;;12.88;100.00;95895.56;1043070;28;20031;-76
2023/09/16 01:41:29;;;;;;;10.05;7.05;;;;;;;12.81;100.00;95884.53;1038806;28;20488;-77
2023/09/16 01:42:00;;;;;;;9.95;7.32;;;;;;;12.89;100.00;95891.06;1042939;28;20021;-77
2023/09/16 01:42:30;;;;;;;12.60;7.68;;;;;;;12.87;100.00;95890.53;1035005;28;20037;-75
2023/09/16 01:43:02;;;;;;;11.05;7.32;;;;;;;12.86;100.00;95888.97;1043108;28;20508;-75
2023/09/16 01:43:33;;;;;;;9.90;7.15;;;;;;;12.87;100.00;95893.97;1039123;28;20047;-74
2023/09/16 01:44:04;;;;;;;11.07;7.60;;;;;;;12.85;100.00;95888.19;1043027;28;20472;-75
2023/09/16 01:44:34;;;;;;;10.55;7.57;;;;;;;12.83;100.00;95892.94;1032726;28;20025;-75
2023/09/16 01:45:05;;;;;;;11.75;8.20;;;;;;;12.84;100.00;95891.88;1034928;28;20346;-75
2023/09/16 01:45:42;;;;;;;10.98;8.00;;;;;;;12.78;100.00;95887.72;1037302;28;20030;-76
2023/09/16 01:46:13;;;;;;;10.65;7.53;;;;;;;12.82;100.00;95896.63;1040120;28;20103;-75
2023/09/16 01:46:43;;;;;;;13.23;7.88;;;;;;;12.81;100.00;95892.44;1038809;28;20706;-74
2023/09/16 01:47:14;;;;;;;15.23;8.45;;;;;;;12.77;100.00;95883.47;1034841;28;20105;-75
2023/09/16 01:47:45;;;;;;;12.00;8.38;;;;;;;12.80;100.00;95893.47;1030897;28;20033;-75
2023/09/16 01:48:16;;;;;;;10.55;7.57;;;;;;;12.74;100.00;95884.84;1038981;28;20033;-76
2023/09/16 01:48:46;;;;;;;12.90;8.07;;;;;;;12.79;100.00;95885.88;1038610;28;20029;-75
2023/09/16 01:49:17;;;;;;;11.85;7.70;;;;;;;12.74;100.00;95884.03;1039609;28;20025;-74
2023/09/16 01:49:47;;;;;;;10.57;7.88;;;;;;;12.77;100.00;95886.13;1038609;28;20030;-76
2023/09/16 01:50:18;;;;;;;11.55;7.85;;;;;;;12.72;100.00;95880.91;1034635;28;20092;-74
2023/09/16 01:50:49;;;;;;;10.32;7.57;;;;;;;12.76;100.00;95878.50;1041856;28;20021;-74
2023/09/16 01:51:19;;;;;;;12.18;7.82;;;;;;;12.77;100.00;95883.47;1043143;28;20027;-76
2023/09/16 01:51:50;;;;;;;10.85;7.72;;;;;;;12.72;100.00;95883.53;1042969;28;20127;-75
2023/09/16 01:52:20;;;;;;;17.33;7.88;;;;;;;12.74;100.00;95886.66;1044908;28;20445;-74
2023/09/16 01:52:51;;;;;;;12.43;7.80;;;;;;;12.71;100.00;95879.34;1047257;28;20041;-75
2023/09/16 01:53:21;;;;;;;10.63;7.55;;;;;;;12.69;100.00;95878.81;1043010;28;20032;-75
2023/09/16 01:53:52;;;;;;;12.15;8.05;;;;;;;12.70;100.00;95880.38;1034831;28;20097;-75
2023/09/16 01:54:22;;;;;;;11.90;8.30;;;;;;;12.70;100.00;95878.53;1030803;28;20080;-75
2023/09/16 01:54:53;;;;;;;11.10;8.00;;;;;;;12.74;100.00;95881.41;1038881;28;20057;-75
2023/09/16 01:55:24;;;;;;;14.38;8.68;;;;;;;12.70;100.00;95872.47;1038931;28;20052;-75
2023/09/16 01:55:54;;;;;;;12.18;7.90;;;;;;;12.73;100.00;95879.81;1042114;28;20028;-75
2023/09/16 01:56:25;;;;;;;11.30;8.00;;;;;;;12.74;100.00;95882.19;1042920;28;20021;-75
2023/09/16 01:56:56;;;;;;;11.90;8.32;;;;;;;12.73;100.00;95887.72;1038832;28;20025;-75
2023/09/16 01:57:26;;;;;;;12.40;7.93;;;;;;;12.66;100.00;95872.22;1038691;28;20543;-75
2023/09/16 01:57:57;;;;;;;12.05;7.95;;;;;;;12.71;100.00;95880.13;1042891;28;20033;-75
2023/09/16 01:58:28;;;;;;;11.95;8.82;;;;;;;12.72;100.00;95883.53;1030712;28;20030;-76
2023/09/16 01:58:58;;;;;;;13.20;8.73;;;;;;;12.72;100.00;95880.91;1030935;28;20109;-75
2023/09/16 01:59:29;;;;;;;11.38;8.13;;;;;;;12.73;100.00;95891.16;1038181;28;20037;-75
2023/09/16 01:59:59;;;;;;;13.20;9.15;;;;;;;12.72;100.00;95886.16;1038476;28;20489;-75
2023/09/16 02:00:30;;;;;;;11.73;8.77;;;;;;;12.73;100.00;95882.47;1038971;28;20045;-75
2023/09/16 02:01:08;;;;;;;10.88;7.90;;;;;;;12.72;100.00;95883.53;1034710;28;20034;-74
2023/09/16 02:01:38;;;;;;;13.77;8.85;;;;;;;12.72;100.00;95891.44;1043950;28;20028;-75
2023/09/16 02:02:09;;;;;;;11.15;8.10;;;;;;;12.62;100.00;95876.47;1048285;28;20024;-75
2023/09/16 02:02:39;;;;;;;12.43;8.60;;;;;;;12.71;100.00;95892.50;1043197;28;20041;-75
2023/09/16 02:03:10;;;;;;;17.15;8.23;;;;;;;12.69;100.00;95886.69;1039960;28;20028;-76
2023/09/16 02:03:40;;;;;;;13.55;8.65;;;;;;;12.69;100.00;95892.75;1034852;28;20034;-73
2023/09/16 02:04:11;;;;;;;12.88;8.07;;;;;;;12.68;100.00;95891.19;1034882;28;20030;-73
2023/09/16 02:04:44;;;;;;;11.20;7.90;;;;;;;12.67;100.00;95894.06;1034527;28;20575;-74
2023/09/16 02:05:15;;;;;;;14.32;8.38;;;;;;;12.62;100.00;95886.22;1027335;28;20058;-75
2023/09/16 02:05:46;;;;;;;12.35;8.27;;;;;;;12.66;100.00;95892.50;1034715;28;20409;-76
2023/09/16 02:06:16;;;;;;;12.82;8.02;;;;;;;12.63;100.00;95896.47;1038289;28;20037;-75
2023/09/16 02:06:47;;;;;;;14.32;8.30;;;;;;;12.66;100.00;95892.50;1034816;28;20489;-75
2023/09/16 02:07:17;;;;;;;12.98;8.63;;;;;;;12.63;100.00;95888.56;1030870;28;20030;-75
2023/09/16 02:07:47;;;;;;;11.80;8.85;;;;;;;12.63;100.00;95890.41;1034896;28;20037;-74
2023/09/16 02:08:18;;;;;;;11.02;8.07;;;;;;;12.63;100.00;95893.84;1043004;28;20035;-75
2023/09/16 02:08:48;;;;;;;12.30;8.77;;;;;;;12.58;100.00;95887.81;1043124;28;20037;-75
2023/09/16 02:09:19;;;;;;;12.98;8.32;;;;;;;12.61;100.00;95889.88;1043167;28;20025;-76
2023/09/16 02:09:49;;;;;;;11.43;7.72;;;;;;;12.60;100.00;95888.31;1042799;28;20477;-76
2023/09/16 02:10:20;;;;;;;14.95;9.10;;;;;;;12.62;100.00;95888.84;1046746;28;20510;-78
2023/09/16 02:10:50;;;;;;;13.27;8.02;;;;;;;12.59;100.00;95882.28;1047150;28;20028;-75
2023/09/16 02:11:21;;;;;;;11.38;8.10;;;;;;;12.61;100.00;95889.88;1047013;28;20032;-74
2023/09/16 02:11:51;;;;;;;14.30;8.88;;;;;;;12.61;100.00;95892.53;1042888;28;20507;-74
2023/09/16 02:12:22;;;;;;;13.27;9.20;;;;;;;12.60;100.00;95885.69;1043098;28;20041;-78
2023/09/16 02:12:52;;;;;;;11.82;8.25;;;;;;;12.61;100.00;95897.78;1043093;28;20029;-76
2023/09/16 02:13:23;;;;;;;11.25;8.57;;;;;;;12.57;100.00;95884.38;1042057;28;20029;-75
2023/09/16 02:13:53;;;;;;;13.52;8.38;;;;;;;12.60;100.00;95888.31;1047018;28;20156;-74
2023/09/16 02:14:24;;;;;;;12.50;8.48;;;;;;;12.57;100.00;95886.22;1042987;28;20431;-75
2023/09/16 02:14:54;;;;;;;11.32;8.90;;;;;;;12.59;100.00;95897.28;1038744;28;20025;-74
2023/09/16 02:15:24;;;;;;;12.23;8.50;;;;;;;12.59;100.00;95894.66;1038940;28;20025;-75
2023/09/16 02:15:55;;;;;;;13.35;8.15;;;;;;;12.57;100.00;95904.66;1034698;28;20490;-74
2023/09/16 02:16:25;;;;;;;16.85;8.05;;;;;;;12.57;100.00;95892.28;1034600;28;20093;-75
2023/09/16 02:16:56;;;;;;;18.17;8.75;;;;;;;12.54;100.00;95890.22;1026752;28;20035;-75
2023/09/16 02:17:27;;;;;;;13.77;8.00;;;;;;;12.46;100.00;95875.75;1034866;28;20029;-76
2023/09/16 02:17:57;;;;;;;14.93;8.68;;;;;;;12.56;100.00;95892.56;1034767;28;20033;-75
2023/09/16 02:18:28;;;;;;;12.40;7.95;;;;;;;12.56;100.00;95892.56;1034848;28;20076;-76
2023/09/16 02:18:58;;;;;;;12.23;8.50;;;;;;;12.55;100.00;95896.25;1034871;28;20088;-75
2023/09/16 02:19:29;;;;;;;13.95;8.05;;;;;;;12.53;100.00;95893.09;1035027;28;20030;-76
2023/09/16 02:19:59;;;;;;;13.27;8.02;;;;;;;12.55;100.00;95901.53;1035488;28;20330;-75
2023/09/16 02:20:30;;;;;;;13.50;7.78;;;;;;;12.55;100.00;95894.41;1034887;28;20367;-75
2023/09/16 02:21:00;;;;;;;12.95;7.82;;;;;;;12.54;100.00;95895.47;1038788;28;20032;-74
2023/09/16 02:21:31;;;;;;;14.95;8.23;;;;;;;12.50;100.00;95889.16;1034745;28;20037;-77
2023/09/16 02:22:02;;;;;;;12.30;8.00;;;;;;;12.50;100.00;95887.31;1038995;28;20045;-76
2023/09/16 02:22:32;;;;;;;13.18;8.40;;;;;;;12.47;100.00;95890.50;1042437;28;20035;-75
2023/09/16 02:23:03;;;;;;;13.75;7.65;;;;;;;12.49;100.00;95887.59;1038107;28;20026;-75
2023/09/16 02:23:34;;;;;;;13.85;8.43;;;;;;;12.53;100.00;95893.88;1029709;28;20761;-75
2023/09/16 02:24:04;;;;;;;13.32;8.43;;;;;;;12.53;100.00;95893.09;1038974;28;20029;-77
2023/09/16 02:24:35;;;;;;;13.40;8.25;;;;;;;12.53;100.00;95893.09;1039319;28;20045;-74